Aérodrome :
LOGIN :

S'inscrire | Disclaimer

   EN    FR    IT 

 










Légende :    VFR   VFR Marginal   IFR   IFR Intensif   IFR Très Intensif
Visi : 
Plafond : 
>= 8 km
>= 3000ft
5 à 8 km
1000 à 3000 ft
1500m à 5 km
500 à 1000 ft
800 à 1500m
200 à 500 ft
< 800m
< 200 ft
Symboles :   Orages  Brouillard  Fortes neiges  Fortes précipitations  Vent > 20 kt
SIGMETs :   Divers  Orages  Givrage  Turbulence  Onde Orograph.  Cendres Volcan.






- Altitude de l'aérodrome : 87 ft
- Code IATA : BEY


OLBA - Rafic Hariri Int.

DERNIER METAR :
  • 210700Z 21009KT 9999 BKN042 17/08 Q1016 NOSIG

METARs EXPIRÉS :
  • 210600Z 19009KT 9999 BKN042 15/08 Q1017 NOSIG
  • 210500Z 18011KT 9999 SCT045 15/08 Q1017 NOSIG

TAF TAF OLBA
Valide du 21 à 06h jusqu'au 22 à 12h UTC


210400Z 2106/2212 20013KT 8000 SCT050 SCT200
BECMG 2118/2120 23013KT 7000 RA BKN026
TEMPO 2121/2208 23010G20KT 4000 TSRA FEW020CB BKN022



MET'MAP, la Météo Aéronautique d'un coup d'oeil ! - Copyright ORBIFLY Décembre 2007 - Disclaimer

ORBIFLY MET'MAP TEAM :

Programmation & Développement : Alexandra Zaïnal
Sur une idée originale de : Baudouin d'Aumeries
Assistance à la programmation : Marc-Olivier Méhu
Soutien technique & logistique : Manuel Goepfert

Contact : metmap@orbifly.com




SOURCES & CREDITS :

   NOAA